createdAt,value
2022-10-21T00:03:17.771Z,16.50
2022-10-21T00:08:20.655Z,14.32
2022-10-21T00:13:23.630Z,14.77
2022-10-21T00:18:25.298Z,15.50
2022-10-21T00:23:27.133Z,16.10
2022-10-21T00:28:29.059Z,17.33
2022-10-21T00:33:30.686Z,19.55
2022-10-21T00:38:33.671Z,15.55
2022-10-21T00:43:57.032Z,13.20
2022-10-21T00:49:01.227Z,16.80
2022-10-21T00:54:03.732Z,16.73
2022-10-21T00:59:06.848Z,15.95
2022-10-21T01:04:08.841Z,16.10
2022-10-21T01:09:11.268Z,14.48
2022-10-21T01:14:19.033Z,17.85
2022-10-21T01:19:57.563Z,16.17
2022-10-21T01:25:04.992Z,15.57
2022-10-21T01:30:17.163Z,16.48
2022-10-21T01:35:46.920Z,16.13
2022-10-21T01:41:09.789Z,16.13
2022-10-21T01:46:39.115Z,16.35
2022-10-21T01:51:40.995Z,18.13
2022-10-21T01:56:45.728Z,17.58
2022-10-21T02:01:49.354Z,17.92
2022-10-21T02:06:51.176Z,15.13
2022-10-21T02:11:58.372Z,15.43
2022-10-21T02:17:00.690Z,17.27
2022-10-21T02:22:05.371Z,17.85
2022-10-21T02:27:07.034Z,21.50
2022-10-21T02:32:28.613Z,14.05
2022-10-21T02:37:41.218Z,14.65
2022-10-21T02:42:48.200Z,17.38
2022-10-21T02:47:50.599Z,18.00
2022-10-21T02:52:52.253Z,16.25
2022-10-21T02:57:53.852Z,12.55
2022-10-21T03:02:55.461Z,14.50
2022-10-21T03:07:57.072Z,13.05
2022-10-21T03:12:58.696Z,12.73
2022-10-21T03:18:00.366Z,17.88
2022-10-21T03:23:02.070Z,16.10
2022-10-21T03:28:03.756Z,12.70
2022-10-21T03:33:06.064Z,18.00
2022-10-21T03:38:07.931Z,14.93
2022-10-21T03:43:09.589Z,12.68
2022-10-21T03:48:11.335Z,16.38
2022-10-21T03:53:24.389Z,13.00
2022-10-21T03:58:35.393Z,15.13
2022-10-21T04:03:36.992Z,13.40
2022-10-21T04:08:38.662Z,12.32
2022-10-21T04:13:40.406Z,16.85
2022-10-21T04:18:42.200Z,13.52
2022-10-21T04:23:43.883Z,15.43
2022-10-21T04:28:45.554Z,13.15
2022-10-21T04:33:47.839Z,20.05
2022-10-21T04:38:49.436Z,12.95
2022-10-21T04:43:51.082Z,11.18
2022-10-21T04:48:52.755Z,11.15
2022-10-21T04:53:54.379Z,11.65
2022-10-21T04:58:56.197Z,11.52
2022-10-21T05:03:58.063Z,12.35
2022-10-21T05:08:59.848Z,11.75
2022-10-21T05:14:01.539Z,11.93
2022-10-21T05:19:03.190Z,13.25
2022-10-21T05:24:04.981Z,11.27
2022-10-21T05:29:06.768Z,11.57
2022-10-21T05:34:08.498Z,9.48
2022-10-21T05:39:11.648Z,15.15
2022-10-21T05:44:13.333Z,9.68
2022-10-21T05:49:14.958Z,11.45
2022-10-21T05:54:16.687Z,12.02
2022-10-21T05:59:18.340Z,9.90
2022-10-21T06:04:19.904Z,13.45
2022-10-21T06:09:21.571Z,12.20
2022-10-21T06:14:23.827Z,11.18
2022-10-21T06:19:25.434Z,14.43
2022-10-21T06:24:27.628Z,13.43
2022-10-21T06:29:29.369Z,16.70
2022-10-21T06:34:31.269Z,10.20
2022-10-21T06:39:32.907Z,11.75
2022-10-21T06:44:34.616Z,12.23
2022-10-21T06:49:36.635Z,14.05
2022-10-21T06:54:38.342Z,15.80
2022-10-21T06:59:40.187Z,14.43
2022-10-21T07:04:45.094Z,11.30
2022-10-21T07:09:46.744Z,9.55
2022-10-21T07:14:50.068Z,14.60
2022-10-21T07:19:51.865Z,8.77
2022-10-21T07:24:53.505Z,11.07
2022-10-21T07:29:55.216Z,10.35
2022-10-21T07:34:56.827Z,12.57
2022-10-21T07:39:59.007Z,10.23
2022-10-21T07:45:01.712Z,10.63
2022-10-21T07:50:03.741Z,9.93
2022-10-21T07:55:05.994Z,13.55
2022-10-21T08:00:09.554Z,11.32
2022-10-21T08:05:18.076Z,12.15
2022-10-21T08:10:19.718Z,10.63
2022-10-21T08:15:21.360Z,12.65
2022-10-21T08:20:23.243Z,8.43
2022-10-21T08:25:30.034Z,11.10
2022-10-21T08:30:32.226Z,11.85
2022-10-21T08:35:34.090Z,9.05
2022-10-21T08:40:46.106Z,11.32
2022-10-21T08:46:13.480Z,12.00
2022-10-21T08:51:31.799Z,10.93
2022-10-21T08:56:33.668Z,14.88
2022-10-21T09:01:47.135Z,15.32
2022-10-21T09:07:07.181Z,9.98
2022-10-21T09:12:22.446Z,12.23
2022-10-21T09:17:59.521Z,8.75
2022-10-21T09:23:21.148Z,12.05
2022-10-21T09:28:26.054Z,13.20
2022-10-21T09:33:30.847Z,11.60
2022-10-21T09:38:54.599Z,9.70
2022-10-21T09:43:56.931Z,7.95
2022-10-21T09:49:41.867Z,8.57
2022-10-21T09:54:24.362Z,11.85
2022-10-21T09:59:30.401Z,11.43
2022-10-21T10:04:35.667Z,7.50
2022-10-21T10:09:46.201Z,9.43
2022-10-21T10:14:48.532Z,20.70
2022-10-21T10:20:05.545Z,15.20
2022-10-21T10:25:33.152Z,8.73
2022-10-21T10:30:48.671Z,14.18
2022-10-21T10:36:09.290Z,13.02
2022-10-21T10:41:14.535Z,8.27
2022-10-21T10:46:25.761Z,13.07
2022-10-21T10:51:33.637Z,11.07
2022-10-21T10:56:47.181Z,8.10
2022-10-21T11:02:10.505Z,11.32
2022-10-21T11:07:28.619Z,9.77
2022-10-21T11:12:31.878Z,9.75
2022-10-21T11:17:43.483Z,10.88
2022-10-21T11:23:02.712Z,10.00
2022-10-21T11:28:19.358Z,8.40
2022-10-21T11:33:37.837Z,10.40
2022-10-21T11:38:40.656Z,12.98
2022-10-21T11:43:51.629Z,9.40
2022-10-21T11:49:11.729Z,11.70
2022-10-21T11:59:34.560Z,8.85
2022-10-21T12:04:50.784Z,10.90
2022-10-21T12:10:04.395Z,11.10
2022-10-21T12:15:16.307Z,10.30
2022-10-21T12:20:23.995Z,7.30
2022-10-21T12:25:41.624Z,11.50
2022-10-21T12:30:56.725Z,7.55
2022-10-21T12:36:18.220Z,8.52
2022-10-21T12:41:21.743Z,7.20
2022-10-21T12:46:28.321Z,8.65
2022-10-21T12:51:33.988Z,6.75
2022-10-21T12:56:59.652Z,5.97
2022-10-21T13:02:18.604Z,7.72
2022-10-21T13:07:26.031Z,8.20
2022-10-21T13:12:30.809Z,4.50
2022-10-21T13:17:48.947Z,9.63
2022-10-21T13:23:01.982Z,8.82
2022-10-21T13:28:19.806Z,8.55
2022-10-21T13:33:23.715Z,9.07
2022-10-21T13:38:37.482Z,7.97
2022-10-21T13:43:46.347Z,7.28
2022-10-21T13:48:49.073Z,6.27
2022-10-21T13:53:55.720Z,6.35
2022-10-21T13:58:58.001Z,7.35
2022-10-21T14:04:33.059Z,5.28
2022-10-21T14:09:44.559Z,6.63
2022-10-21T14:14:47.573Z,8.30
2022-10-21T14:19:54.125Z,3.78
2022-10-21T14:24:58.989Z,5.22
2022-10-21T14:30:10.196Z,8.15
2022-10-21T14:35:11.801Z,4.82
2022-10-21T14:40:31.913Z,11.63
2022-10-21T14:45:36.325Z,6.00
2022-10-21T14:50:40.259Z,6.03
2022-10-21T14:55:43.076Z,6.50
2022-10-21T15:00:45.102Z,4.72
2022-10-21T15:05:49.287Z,5.60
2022-10-21T15:10:57.322Z,4.32
2022-10-21T15:16:04.151Z,6.90
2022-10-21T15:21:12.543Z,6.65
2022-10-21T15:26:32.303Z,8.90
2022-10-21T15:31:33.948Z,8.32
2022-10-21T15:36:36.894Z,7.07
2022-10-21T15:41:39.309Z,8.82
2022-10-21T15:46:46.340Z,7.90
2022-10-21T15:51:50.305Z,8.43
2022-10-21T15:56:54.517Z,10.40
2022-10-21T16:01:57.565Z,8.85
2022-10-21T16:06:59.282Z,12.23
2022-10-21T16:12:01.717Z,11.93
2022-10-21T16:17:03.503Z,7.38
2022-10-21T16:22:13.140Z,6.55
2022-10-21T16:32:37.278Z,12.98
2022-10-21T16:37:39.413Z,7.47
2022-10-21T16:42:41.790Z,10.60
2022-10-21T16:47:48.572Z,10.93
2022-10-21T16:52:50.545Z,8.13
2022-10-21T16:57:52.179Z,9.73
2022-10-21T17:02:53.962Z,10.27
2022-10-21T17:07:57.060Z,11.25
2022-10-21T17:12:59.285Z,8.50
2022-10-21T17:18:01.091Z,10.30
2022-10-21T17:23:03.291Z,11.80
2022-10-21T17:28:05.400Z,10.32
2022-10-21T17:33:19.893Z,8.57
2022-10-21T17:38:21.952Z,7.35
2022-10-21T17:43:23.684Z,11.85
2022-10-21T17:48:25.522Z,9.48
2022-10-21T17:53:33.109Z,5.40
2022-10-21T17:58:34.806Z,7.10
2022-10-21T18:03:36.673Z,7.85
2022-10-21T18:08:38.663Z,7.65
2022-10-21T18:13:42.140Z,9.55
2022-10-21T18:18:46.068Z,10.50
2022-10-21T18:23:50.136Z,7.35
2022-10-21T18:28:54.625Z,11.23
2022-10-21T18:33:58.165Z,10.20
2022-10-21T18:39:00.353Z,6.13
2022-10-21T18:44:08.065Z,5.82
2022-10-21T18:49:15.794Z,5.28
2022-10-21T18:54:17.486Z,5.00
2022-10-21T18:59:19.302Z,6.95
2022-10-21T19:04:21.099Z,3.97
2022-10-21T19:09:28.771Z,5.95
2022-10-21T19:14:32.467Z,7.82
2022-10-21T19:19:38.511Z,5.90
2022-10-21T19:24:41.109Z,7.28
2022-10-21T19:29:43.515Z,5.80
2022-10-21T19:34:45.324Z,4.50
2022-10-21T19:39:47.292Z,5.07
2022-10-21T19:44:49.000Z,7.47
2022-10-21T19:49:51.989Z,5.30
2022-10-21T19:54:53.662Z,5.88
2022-10-21T19:59:55.501Z,5.97
2022-10-21T20:04:57.291Z,8.35
2022-10-21T20:09:58.933Z,6.25
2022-10-21T20:15:00.620Z,7.03
2022-10-21T20:20:02.274Z,7.07
2022-10-21T20:25:04.207Z,8.77
2022-10-21T20:30:08.005Z,8.60
2022-10-21T20:35:09.758Z,7.72
2022-10-21T20:40:11.611Z,8.25
2022-10-21T20:45:13.262Z,8.57
2022-10-21T20:50:14.957Z,6.68
2022-10-21T20:55:16.920Z,9.00
2022-10-21T21:00:18.825Z,7.70
2022-10-21T21:05:20.448Z,7.18
2022-10-21T21:10:22.275Z,7.65
2022-10-21T21:15:24.019Z,6.35
2022-10-21T21:20:25.672Z,5.60
2022-10-21T21:25:28.576Z,6.70
2022-10-21T21:30:37.222Z,9.38
2022-10-21T21:35:38.908Z,6.53
2022-10-21T21:40:40.719Z,6.15
2022-10-21T21:45:46.954Z,5.78
2022-10-21T21:50:49.429Z,6.60
2022-10-21T21:55:51.118Z,5.20
2022-10-21T22:00:52.695Z,5.45
2022-10-21T22:05:54.367Z,5.68
2022-10-21T22:10:56.066Z,11.82
2022-10-21T22:15:57.686Z,8.13
2022-10-21T22:21:01.562Z,8.73
2022-10-21T22:26:03.849Z,7.55
2022-10-21T22:31:08.733Z,6.63
2022-10-21T22:36:11.185Z,7.55
2022-10-21T22:41:13.160Z,6.40
2022-10-21T22:46:33.367Z,4.68
2022-10-21T22:51:36.034Z,5.35
2022-10-21T22:56:37.891Z,6.38
2022-10-21T23:01:39.489Z,6.30
2022-10-21T23:06:41.067Z,9.43
2022-10-21T23:11:42.798Z,6.30
2022-10-21T23:16:44.442Z,6.65
2022-10-21T23:21:46.101Z,9.38
2022-10-21T23:26:48.289Z,7.57
2022-10-21T23:31:50.054Z,15.80
2022-10-21T23:36:51.671Z,13.48
2022-10-21T23:41:53.298Z,9.80
2022-10-21T23:46:56.663Z,5.70
2022-10-21T23:51:58.442Z,4.97
2022-10-21T23:57:00.061Z,4.82
